sensor_id;sensor_type;location;lat;lon;timestamp;P1;durP1;ratioP1;P2;durP2;ratioP2
13419;SDS011;6781;58.440;15.470;2023-08-12T00:00:18;1.98;;;1.52;;
13419;SDS011;6781;58.440;15.470;2023-08-12T00:02:45;4.75;;;1.90;;
13419;SDS011;6781;58.440;15.470;2023-08-12T00:05:13;7.40;;;2.05;;
13419;SDS011;6781;58.440;15.470;2023-08-12T00:07:42;2.45;;;1.70;;
13419;SDS011;6781;58.440;15.470;2023-08-12T00:10:10;2.80;;;1.50;;
13419;SDS011;6781;58.440;15.470;2023-08-12T00:12:38;3.20;;;1.70;;
13419;SDS011;6781;58.440;15.470;2023-08-12T00:15:06;3.15;;;1.60;;
13419;SDS011;6781;58.440;15.470;2023-08-12T00:17:35;4.32;;;1.73;;
13419;SDS011;6781;58.440;15.470;2023-08-12T00:20:06;3.00;;;1.45;;
13419;SDS011;6781;58.440;15.470;2023-08-12T00:22:36;2.90;;;1.70;;
13419;SDS011;6781;58.440;15.470;2023-08-12T00:25:05;2.75;;;1.58;;
13419;SDS011;6781;58.440;15.470;2023-08-12T00:27:33;4.07;;;2.08;;
13419;SDS011;6781;58.440;15.470;2023-08-12T00:30:00;5.05;;;1.80;;
13419;SDS011;6781;58.440;15.470;2023-08-12T00:32:27;4.50;;;1.60;;
13419;SDS011;6781;58.440;15.470;2023-08-12T00:34:54;3.65;;;1.80;;
13419;SDS011;6781;58.440;15.470;2023-08-12T00:37:22;1.77;;;1.60;;
13419;SDS011;6781;58.440;15.470;2023-08-12T00:39:49;3.20;;;1.70;;
13419;SDS011;6781;58.440;15.470;2023-08-12T00:42:17;6.60;;;1.60;;
13419;SDS011;6781;58.440;15.470;2023-08-12T00:44:44;3.55;;;1.48;;
13419;SDS011;6781;58.440;15.470;2023-08-12T00:47:12;2.45;;;1.60;;
13419;SDS011;6781;58.440;15.470;2023-08-12T00:49:39;3.30;;;1.70;;
13419;SDS011;6781;58.440;15.470;2023-08-12T00:52:09;3.75;;;1.60;;
13419;SDS011;6781;58.440;15.470;2023-08-12T00:54:36;4.32;;;1.63;;
13419;SDS011;6781;58.440;15.470;2023-08-12T00:57:03;2.25;;;1.50;;
13419;SDS011;6781;58.440;15.470;2023-08-12T00:59:34;1.83;;;1.30;;
13419;SDS011;6781;58.440;15.470;2023-08-12T01:02:03;2.58;;;1.80;;
13419;SDS011;6781;58.440;15.470;2023-08-12T01:04:30;5.25;;;1.65;;
13419;SDS011;6781;58.440;15.470;2023-08-12T01:06:57;4.85;;;2.00;;
13419;SDS011;6781;58.440;15.470;2023-08-12T01:09:25;5.05;;;1.73;;
13419;SDS011;6781;58.440;15.470;2023-08-12T01:11:54;1.77;;;1.60;;
13419;SDS011;6781;58.440;15.470;2023-08-12T01:14:27;3.13;;;1.55;;
13419;SDS011;6781;58.440;15.470;2023-08-12T01:17:02;2.63;;;1.40;;
13419;SDS011;6781;58.440;15.470;2023-08-12T01:19:34;5.70;;;1.80;;
13419;SDS011;6781;58.440;15.470;2023-08-12T01:22:02;6.05;;;2.58;;
13419;SDS011;6781;58.440;15.470;2023-08-12T01:24:35;6.13;;;1.80;;
13419;SDS011;6781;58.440;15.470;2023-08-12T01:27:04;1.50;;;1.40;;
13419;SDS011;6781;58.440;15.470;2023-08-12T01:29:32;2.65;;;1.80;;
13419;SDS011;6781;58.440;15.470;2023-08-12T01:32:02;1.50;;;1.40;;
13419;SDS011;6781;58.440;15.470;2023-08-12T01:34:45;4.30;;;1.85;;
13419;SDS011;6781;58.440;15.470;2023-08-12T01:37:18;2.95;;;1.75;;
13419;SDS011;6781;58.440;15.470;2023-08-12T01:39:52;1.52;;;1.42;;
13419;SDS011;6781;58.440;15.470;2023-08-12T01:42:20;5.72;;;1.40;;
13419;SDS011;6781;58.440;15.470;2023-08-12T01:44:48;4.63;;;2.00;;
13419;SDS011;6781;58.440;15.470;2023-08-12T01:47:16;3.13;;;1.75;;
13419;SDS011;6781;58.440;15.470;2023-08-12T01:49:43;3.47;;;1.80;;
13419;SDS011;6781;58.440;15.470;2023-08-12T01:52:10;3.45;;;1.80;;
13419;SDS011;6781;58.440;15.470;2023-08-12T01:54:37;5.22;;;1.70;;
13419;SDS011;6781;58.440;15.470;2023-08-12T01:57:06;3.40;;;2.05;;
13419;SDS011;6781;58.440;15.470;2023-08-12T01:59:34;1.55;;;1.45;;
13419;SDS011;6781;58.440;15.470;2023-08-12T02:07:25;2.67;;;1.88;;
13419;SDS011;6781;58.440;15.470;2023-08-12T02:09:52;2.70;;;2.10;;
13419;SDS011;6781;58.440;15.470;2023-08-12T02:12:21;3.25;;;2.05;;
13419;SDS011;6781;58.440;15.470;2023-08-12T02:14:48;2.78;;;1.80;;
13419;SDS011;6781;58.440;15.470;2023-08-12T02:17:15;3.65;;;1.90;;
13419;SDS011;6781;58.440;15.470;2023-08-12T02:19:43;5.53;;;1.80;;
13419;SDS011;6781;58.440;15.470;2023-08-12T02:22:11;3.83;;;1.90;;
13419;SDS011;6781;58.440;15.470;2023-08-12T02:24:38;3.15;;;1.50;;
13419;SDS011;6781;58.440;15.470;2023-08-12T02:27:05;2.00;;;1.63;;
13419;SDS011;6781;58.440;15.470;2023-08-12T02:29:34;3.80;;;1.92;;
13419;SDS011;6781;58.440;15.470;2023-08-12T02:32:01;2.13;;;1.70;;
13419;SDS011;6781;58.440;15.470;2023-08-12T02:34:28;1.40;;;1.30;;
13419;SDS011;6781;58.440;15.470;2023-08-12T02:36:55;2.03;;;1.40;;
13419;SDS011;6781;58.440;15.470;2023-08-12T02:39:22;1.77;;;1.40;;
13419;SDS011;6781;58.440;15.470;2023-08-12T02:41:50;2.35;;;1.70;;
13419;SDS011;6781;58.440;15.470;2023-08-12T02:44:17;2.35;;;1.60;;
13419;SDS011;6781;58.440;15.470;2023-08-12T02:46:46;5.88;;;1.80;;
13419;SDS011;6781;58.440;15.470;2023-08-12T02:49:13;3.42;;;1.70;;
13419;SDS011;6781;58.440;15.470;2023-08-12T02:51:40;4.00;;;1.70;;
13419;SDS011;6781;58.440;15.470;2023-08-12T02:54:08;4.45;;;1.90;;
13419;SDS011;6781;58.440;15.470;2023-08-12T02:56:35;3.95;;;1.70;;
13419;SDS011;6781;58.440;15.470;2023-08-12T02:59:02;1.80;;;1.50;;
13419;SDS011;6781;58.440;15.470;2023-08-12T03:01:30;2.33;;;1.85;;
13419;SDS011;6781;58.440;15.470;2023-08-12T03:03:58;1.73;;;1.58;;
13419;SDS011;6781;58.440;15.470;2023-08-12T03:06:25;1.70;;;1.60;;
13419;SDS011;6781;58.440;15.470;2023-08-12T03:08:53;3.92;;;1.88;;
13419;SDS011;6781;58.440;15.470;2023-08-12T03:11:20;1.60;;;1.30;;
13419;SDS011;6781;58.440;15.470;2023-08-12T03:13:47;2.90;;;1.52;;
13419;SDS011;6781;58.440;15.470;2023-08-12T03:16:15;4.30;;;1.80;;
13419;SDS011;6781;58.440;15.470;2023-08-12T03:18:42;2.90;;;1.60;;
13419;SDS011;6781;58.440;15.470;2023-08-12T03:21:11;3.25;;;1.80;;
13419;SDS011;6781;58.440;15.470;2023-08-12T03:23:38;3.85;;;1.88;;
13419;SDS011;6781;58.440;15.470;2023-08-12T03:26:05;2.28;;;1.73;;
13419;SDS011;6781;58.440;15.470;2023-08-12T03:28:33;2.75;;;1.67;;
13419;SDS011;6781;58.440;15.470;2023-08-12T03:31:00;3.40;;;1.52;;
13419;SDS011;6781;58.440;15.470;2023-08-12T03:33:27;2.90;;;1.95;;
13419;SDS011;6781;58.440;15.470;2023-08-12T03:35:55;3.72;;;1.70;;
13419;SDS011;6781;58.440;15.470;2023-08-12T03:38:24;2.38;;;1.65;;
13419;SDS011;6781;58.440;15.470;2023-08-12T03:40:51;2.78;;;1.73;;
13419;SDS011;6781;58.440;15.470;2023-08-12T03:43:18;1.70;;;1.60;;
13419;SDS011;6781;58.440;15.470;2023-08-12T03:45:45;2.85;;;1.77;;
13419;SDS011;6781;58.440;15.470;2023-08-12T03:48:14;2.80;;;1.80;;
13419;SDS011;6781;58.440;15.470;2023-08-12T03:50:41;1.95;;;1.60;;
13419;SDS011;6781;58.440;15.470;2023-08-12T03:53:10;4.32;;;1.85;;
13419;SDS011;6781;58.440;15.470;2023-08-12T03:55:40;3.10;;;1.92;;
13419;SDS011;6781;58.440;15.470;2023-08-12T03:58:09;3.13;;;1.92;;
13419;SDS011;6781;58.440;15.470;2023-08-12T04:00:40;2.55;;;1.70;;
13419;SDS011;6781;58.440;15.470;2023-08-12T04:03:08;3.53;;;1.70;;
13419;SDS011;6781;58.440;15.470;2023-08-12T04:05:35;4.78;;;1.75;;
13419;SDS011;6781;58.440;15.470;2023-08-12T04:08:03;6.82;;;1.70;;
13419;SDS011;6781;58.440;15.470;2023-08-12T04:10:30;2.67;;;1.35;;
13419;SDS011;6781;58.440;15.470;2023-08-12T04:13:00;2.17;;;1.85;;
13419;SDS011;6781;58.440;15.470;2023-08-12T04:15:27;1.85;;;1.58;;
13419;SDS011;6781;58.440;15.470;2023-08-12T04:17:54;3.70;;;1.98;;
13419;SDS011;6781;58.440;15.470;2023-08-12T04:20:22;1.70;;;1.60;;
13419;SDS011;6781;58.440;15.470;2023-08-12T04:22:49;3.13;;;1.70;;
13419;SDS011;6781;58.440;15.470;2023-08-12T04:25:17;6.13;;;1.90;;
13419;SDS011;6781;58.440;15.470;2023-08-12T04:27:44;2.92;;;1.77;;
13419;SDS011;6781;58.440;15.470;2023-08-12T04:30:15;2.53;;;1.60;;
13419;SDS011;6781;58.440;15.470;2023-08-12T04:32:42;5.60;;;2.17;;
13419;SDS011;6781;58.440;15.470;2023-08-12T04:35:10;2.58;;;1.90;;
13419;SDS011;6781;58.440;15.470;2023-08-12T04:37:38;3.10;;;2.10;;
13419;SDS011;6781;58.440;15.470;2023-08-12T04:40:11;2.58;;;1.70;;
13419;SDS011;6781;58.440;15.470;2023-08-12T04:42:40;2.95;;;1.80;;
13419;SDS011;6781;58.440;15.470;2023-08-12T04:45:08;4.85;;;1.67;;
13419;SDS011;6781;58.440;15.470;2023-08-12T04:47:39;2.17;;;1.73;;
13419;SDS011;6781;58.440;15.470;2023-08-12T04:50:12;3.65;;;1.80;;
13419;SDS011;6781;58.440;15.470;2023-08-12T04:52:42;4.60;;;1.52;;
13419;SDS011;6781;58.440;15.470;2023-08-12T04:55:11;3.67;;;2.00;;
13419;SDS011;6781;58.440;15.470;2023-08-12T04:57:52;2.20;;;1.50;;
13419;SDS011;6781;58.440;15.470;2023-08-12T05:00:22;2.25;;;1.48;;
13419;SDS011;6781;58.440;15.470;2023-08-12T05:02:51;2.05;;;1.52;;
13419;SDS011;6781;58.440;15.470;2023-08-12T05:05:19;1.80;;;1.70;;
13419;SDS011;6781;58.440;15.470;2023-08-12T05:07:46;2.97;;;1.60;;
13419;SDS011;6781;58.440;15.470;2023-08-12T05:10:14;1.75;;;1.65;;
13419;SDS011;6781;58.440;15.470;2023-08-12T05:12:42;2.70;;;1.80;;
13419;SDS011;6781;58.440;15.470;2023-08-12T05:15:09;2.47;;;2.17;;
13419;SDS011;6781;58.440;15.470;2023-08-12T05:17:37;3.90;;;1.90;;
13419;SDS011;6781;58.440;15.470;2023-08-12T05:20:07;2.50;;;1.58;;
13419;SDS011;6781;58.440;15.470;2023-08-12T05:22:36;2.33;;;1.98;;
13419;SDS011;6781;58.440;15.470;2023-08-12T05:25:03;2.72;;;1.70;;
13419;SDS011;6781;58.440;15.470;2023-08-12T05:27:31;2.85;;;1.50;;
13419;SDS011;6781;58.440;15.470;2023-08-12T05:29:58;2.35;;;2.00;;
13419;SDS011;6781;58.440;15.470;2023-08-12T05:32:25;3.08;;;2.10;;
13419;SDS011;6781;58.440;15.470;2023-08-12T05:34:53;3.08;;;2.00;;
13419;SDS011;6781;58.440;15.470;2023-08-12T05:37:24;2.03;;;1.63;;
13419;SDS011;6781;58.440;15.470;2023-08-12T05:39:51;3.58;;;1.60;;
13419;SDS011;6781;58.440;15.470;2023-08-12T05:42:19;4.03;;;2.42;;
13419;SDS011;6781;58.440;15.470;2023-08-12T05:44:46;1.70;;;1.60;;
13419;SDS011;6781;58.440;15.470;2023-08-12T05:47:13;2.97;;;1.45;;
13419;SDS011;6781;58.440;15.470;2023-08-12T05:49:41;3.25;;;2.10;;
13419;SDS011;6781;58.440;15.470;2023-08-12T05:52:09;3.38;;;1.85;;
13419;SDS011;6781;58.440;15.470;2023-08-12T05:54:38;2.55;;;2.00;;
13419;SDS011;6781;58.440;15.470;2023-08-12T05:57:05;4.25;;;2.20;;
13419;SDS011;6781;58.440;15.470;2023-08-12T05:59:32;2.30;;;2.15;;
13419;SDS011;6781;58.440;15.470;2023-08-12T06:01:59;2.47;;;2.28;;
13419;SDS011;6781;58.440;15.470;2023-08-12T06:04:26;2.80;;;2.53;;
13419;SDS011;6781;58.440;15.470;2023-08-12T06:06:53;1.85;;;1.65;;
13419;SDS011;6781;58.440;15.470;2023-08-12T06:09:21;3.42;;;2.08;;
13419;SDS011;6781;58.440;15.470;2023-08-12T06:11:50;4.20;;;2.30;;
13419;SDS011;6781;58.440;15.470;2023-08-12T06:14:18;3.00;;;2.70;;
13419;SDS011;6781;58.440;15.470;2023-08-12T06:16:45;4.28;;;2.70;;
13419;SDS011;6781;58.440;15.470;2023-08-12T06:19:13;3.95;;;2.33;;
13419;SDS011;6781;58.440;15.470;2023-08-12T06:21:40;3.28;;;2.13;;
13419;SDS011;6781;58.440;15.470;2023-08-12T06:24:07;2.72;;;2.53;;
13419;SDS011;6781;58.440;15.470;2023-08-12T06:26:34;5.55;;;2.42;;
13419;SDS011;6781;58.440;15.470;2023-08-12T06:29:04;2.47;;;2.17;;
13419;SDS011;6781;58.440;15.470;2023-08-12T06:31:31;4.35;;;2.13;;
13419;SDS011;6781;58.440;15.470;2023-08-12T06:33:58;2.38;;;2.10;;
13419;SDS011;6781;58.440;15.470;2023-08-12T06:36:26;5.10;;;2.40;;
13419;SDS011;6781;58.440;15.470;2023-08-12T06:38:53;3.72;;;2.70;;
13419;SDS011;6781;58.440;15.470;2023-08-12T06:41:20;3.47;;;2.80;;
13419;SDS011;6781;58.440;15.470;2023-08-12T06:43:47;3.33;;;2.60;;
13419;SDS011;6781;58.440;15.470;2023-08-12T06:46:17;3.30;;;2.50;;
13419;SDS011;6781;58.440;15.470;2023-08-12T06:48:44;3.95;;;2.70;;
13419;SDS011;6781;58.440;15.470;2023-08-12T06:51:11;3.28;;;2.47;;
13419;SDS011;6781;58.440;15.470;2023-08-12T06:53:39;3.03;;;2.35;;
13419;SDS011;6781;58.440;15.470;2023-08-12T06:56:06;4.10;;;2.53;;
13419;SDS011;6781;58.440;15.470;2023-08-12T06:58:34;2.67;;;2.47;;
13419;SDS011;6781;58.440;15.470;2023-08-12T07:01:01;3.85;;;2.35;;
13419;SDS011;6781;58.440;15.470;2023-08-12T07:03:29;3.63;;;2.45;;
13419;SDS011;6781;58.440;15.470;2023-08-12T07:05:58;2.67;;;2.47;;
13419;SDS011;6781;58.440;15.470;2023-08-12T07:08:25;3.50;;;2.40;;
13419;SDS011;6781;58.440;15.470;2023-08-12T07:10:52;2.60;;;2.03;;
13419;SDS011;6781;58.440;15.470;2023-08-12T07:13:35;2.85;;;2.60;;
13419;SDS011;6781;58.440;15.470;2023-08-12T07:16:10;3.13;;;2.25;;
13419;SDS011;6781;58.440;15.470;2023-08-12T07:21:43;2.95;;;2.50;;
13419;SDS011;6781;58.440;15.470;2023-08-12T07:24:13;3.17;;;2.45;;
13419;SDS011;6781;58.440;15.470;2023-08-12T07:26:41;3.20;;;2.20;;
13419;SDS011;6781;58.440;15.470;2023-08-12T07:29:08;2.65;;;2.50;;
13419;SDS011;6781;58.440;15.470;2023-08-12T07:31:37;3.42;;;2.40;;
13419;SDS011;6781;58.440;15.470;2023-08-12T07:34:10;3.22;;;2.30;;
13419;SDS011;6781;58.440;15.470;2023-08-12T07:36:39;2.53;;;2.33;;
13419;SDS011;6781;58.440;15.470;2023-08-12T07:39:06;4.07;;;2.53;;
13419;SDS011;6781;58.440;15.470;2023-08-12T07:41:33;2.47;;;2.33;;
13419;SDS011;6781;58.440;15.470;2023-08-12T07:44:01;2.28;;;2.00;;
13419;SDS011;6781;58.440;15.470;2023-08-12T07:46:28;4.95;;;2.20;;
13419;SDS011;6781;58.440;15.470;2023-08-12T07:48:56;2.47;;;2.13;;
13419;SDS011;6781;58.440;15.470;2023-08-12T07:51:25;2.25;;;2.03;;
13419;SDS011;6781;58.440;15.470;2023-08-12T07:53:52;2.90;;;1.80;;
13419;SDS011;6781;58.440;15.470;2023-08-12T07:56:20;2.83;;;1.83;;
13419;SDS011;6781;58.440;15.470;2023-08-12T07:58:53;5.57;;;2.05;;
13419;SDS011;6781;58.440;15.470;2023-08-12T08:01:23;3.35;;;2.00;;
13419;SDS011;6781;58.440;15.470;2023-08-12T08:04:08;2.53;;;1.95;;
13419;SDS011;6781;58.440;15.470;2023-08-12T08:06:50;2.58;;;2.15;;
13419;SDS011;6781;58.440;15.470;2023-08-12T08:09:18;2.20;;;2.00;;
13419;SDS011;6781;58.440;15.470;2023-08-12T08:12:07;3.92;;;1.88;;
13419;SDS011;6781;58.440;15.470;2023-08-12T08:14:40;2.53;;;1.90;;
13419;SDS011;6781;58.440;15.470;2023-08-12T08:17:27;2.00;;;1.52;;
13419;SDS011;6781;58.440;15.470;2023-08-12T08:20:13;2.58;;;1.88;;
13419;SDS011;6781;58.440;15.470;2023-08-12T08:22:44;2.67;;;1.80;;
13419;SDS011;6781;58.440;15.470;2023-08-12T08:25:20;2.08;;;1.85;;
13419;SDS011;6781;58.440;15.470;2023-08-12T08:27:48;2.05;;;1.85;;
13419;SDS011;6781;58.440;15.470;2023-08-12T08:30:18;4.03;;;1.88;;
13419;SDS011;6781;58.440;15.470;2023-08-12T08:32:45;2.03;;;1.83;;
13419;SDS011;6781;58.440;15.470;2023-08-12T08:35:14;2.55;;;1.88;;
13419;SDS011;6781;58.440;15.470;2023-08-12T08:40:39;5.82;;;2.00;;
13419;SDS011;6781;58.440;15.470;2023-08-12T08:44:29;2.10;;;2.00;;
13419;SDS011;6781;58.440;15.470;2023-08-12T08:46:30;3.55;;;1.77;;
13419;SDS011;6781;58.440;15.470;2023-08-12T08:49:54;6.85;;;1.88;;
13419;SDS011;6781;58.440;15.470;2023-08-12T08:52:46;2.97;;;1.98;;
13419;SDS011;6781;58.440;15.470;2023-08-12T08:59:01;1.77;;;1.50;;
13419;SDS011;6781;58.440;15.470;2023-08-12T09:01:32;2.55;;;1.98;;
13419;SDS011;6781;58.440;15.470;2023-08-12T09:04:03;2.20;;;2.00;;
13419;SDS011;6781;58.440;15.470;2023-08-12T09:06:32;1.85;;;1.75;;
13419;SDS011;6781;58.440;15.470;2023-08-12T09:09:06;2.72;;;1.75;;
13419;SDS011;6781;58.440;15.470;2023-08-12T09:11:37;2.25;;;1.80;;
13419;SDS011;6781;58.440;15.470;2023-08-12T09:16:53;4.93;;;2.15;;
13419;SDS011;6781;58.440;15.470;2023-08-12T09:19:28;2.92;;;1.90;;
13419;SDS011;6781;58.440;15.470;2023-08-12T09:22:04;2.33;;;1.77;;
13419;SDS011;6781;58.440;15.470;2023-08-12T09:24:54;2.40;;;1.80;;
13419;SDS011;6781;58.440;15.470;2023-08-12T09:34:00;2.22;;;1.80;;
13419;SDS011;6781;58.440;15.470;2023-08-12T09:36:40;3.08;;;1.90;;
13419;SDS011;6781;58.440;15.470;2023-08-12T09:42:36;1.77;;;1.67;;
13419;SDS011;6781;58.440;15.470;2023-08-12T09:45:11;1.83;;;1.60;;
13419;SDS011;6781;58.440;15.470;2023-08-12T09:47:40;1.83;;;1.73;;
13419;SDS011;6781;58.440;15.470;2023-08-12T09:50:10;2.20;;;2.00;;
13419;SDS011;6781;58.440;15.470;2023-08-12T09:52:38;2.20;;;1.85;;
13419;SDS011;6781;58.440;15.470;2023-08-12T09:55:07;1.70;;;1.60;;
13419;SDS011;6781;58.440;15.470;2023-08-12T09:57:36;2.58;;;1.85;;
13419;SDS011;6781;58.440;15.470;2023-08-12T10:00:09;2.38;;;1.70;;
13419;SDS011;6781;58.440;15.470;2023-08-12T10:02:41;4.95;;;2.08;;
13419;SDS011;6781;58.440;15.470;2023-08-12T10:05:09;3.15;;;1.95;;
13419;SDS011;6781;58.440;15.470;2023-08-12T10:07:39;2.35;;;1.90;;
13419;SDS011;6781;58.440;15.470;2023-08-12T10:10:07;2.28;;;1.65;;
13419;SDS011;6781;58.440;15.470;2023-08-12T10:12:36;2.72;;;1.90;;
13419;SDS011;6781;58.440;15.470;2023-08-12T10:15:05;3.20;;;1.92;;
13419;SDS011;6781;58.440;15.470;2023-08-12T10:17:33;2.00;;;1.80;;
13419;SDS011;6781;58.440;15.470;2023-08-12T10:20:03;2.83;;;2.03;;
13419;SDS011;6781;58.440;15.470;2023-08-12T10:22:33;2.03;;;1.90;;
13419;SDS011;6781;58.440;15.470;2023-08-12T10:25:05;3.40;;;2.05;;
13419;SDS011;6781;58.440;15.470;2023-08-12T10:27:37;2.38;;;1.80;;
13419;SDS011;6781;58.440;15.470;2023-08-12T10:30:07;4.53;;;2.15;;
13419;SDS011;6781;58.440;15.470;2023-08-12T10:32:35;2.70;;;1.50;;
13419;SDS011;6781;58.440;15.470;2023-08-12T10:35:07;2.65;;;1.65;;
13419;SDS011;6781;58.440;15.470;2023-08-12T10:37:35;2.08;;;1.85;;
13419;SDS011;6781;58.440;15.470;2023-08-12T10:40:03;2.22;;;2.00;;
13419;SDS011;6781;58.440;15.470;2023-08-12T10:42:46;2.63;;;1.88;;
13419;SDS011;6781;58.440;15.470;2023-08-12T10:45:14;1.60;;;1.50;;
13419;SDS011;6781;58.440;15.470;2023-08-12T10:47:42;1.77;;;1.67;;
13419;SDS011;6781;58.440;15.470;2023-08-12T10:50:19;3.97;;;2.05;;
13419;SDS011;6781;58.440;15.470;2023-08-12T10:52:47;2.28;;;1.95;;
13419;SDS011;6781;58.440;15.470;2023-08-12T10:55:18;2.30;;;1.60;;
13419;SDS011;6781;58.440;15.470;2023-08-12T10:57:48;3.22;;;1.70;;
13419;SDS011;6781;58.440;15.470;2023-08-12T11:00:18;2.70;;;1.75;;
13419;SDS011;6781;58.440;15.470;2023-08-12T11:02:51;3.30;;;1.73;;
13419;SDS011;6781;58.440;15.470;2023-08-12T11:05:23;2.22;;;2.03;;
13419;SDS011;6781;58.440;15.470;2023-08-12T11:07:56;4.57;;;2.03;;
13419;SDS011;6781;58.440;15.470;2023-08-12T11:10:27;2.28;;;1.90;;
13419;SDS011;6781;58.440;15.470;2023-08-12T11:12:58;2.30;;;2.10;;
13419;SDS011;6781;58.440;15.470;2023-08-12T11:15:31;4.50;;;2.25;;
13419;SDS011;6781;58.440;15.470;2023-08-12T11:17:59;2.20;;;2.05;;
13419;SDS011;6781;58.440;15.470;2023-08-12T11:20:31;2.88;;;2.67;;
13419;SDS011;6781;58.440;15.470;2023-08-12T11:22:59;2.85;;;2.40;;
13419;SDS011;6781;58.440;15.470;2023-08-12T11:25:28;2.63;;;2.00;;
13419;SDS011;6781;58.440;15.470;2023-08-12T11:27:58;2.28;;;2.17;;
13419;SDS011;6781;58.440;15.470;2023-08-12T11:30:26;3.30;;;2.17;;
13419;SDS011;6781;58.440;15.470;2023-08-12T11:32:56;2.63;;;2.22;;
13419;SDS011;6781;58.440;15.470;2023-08-12T11:35:25;2.72;;;2.53;;
13419;SDS011;6781;58.440;15.470;2023-08-12T11:37:54;2.30;;;2.20;;
13419;SDS011;6781;58.440;15.470;2023-08-12T11:40:23;3.80;;;2.25;;
13419;SDS011;6781;58.440;15.470;2023-08-12T11:42:51;2.28;;;2.08;;
13419;SDS011;6781;58.440;15.470;2023-08-12T11:45:19;2.65;;;2.40;;
13419;SDS011;6781;58.440;15.470;2023-08-12T11:47:48;2.70;;;2.50;;
13419;SDS011;6781;58.440;15.470;2023-08-12T11:50:19;2.38;;;2.17;;
13419;SDS011;6781;58.440;15.470;2023-08-12T11:52:47;2.58;;;2.38;;
13419;SDS011;6781;58.440;15.470;2023-08-12T11:55:16;2.72;;;2.50;;
13419;SDS011;6781;58.440;15.470;2023-08-12T11:57:43;2.85;;;2.58;;
13419;SDS011;6781;58.440;15.470;2023-08-12T12:00:11;2.90;;;2.33;;
13419;SDS011;6781;58.440;15.470;2023-08-12T12:02:40;4.60;;;2.60;;
13419;SDS011;6781;58.440;15.470;2023-08-12T12:05:12;2.88;;;2.67;;
13419;SDS011;6781;58.440;15.470;2023-08-12T12:07:40;3.30;;;2.55;;
13419;SDS011;6781;58.440;15.470;2023-08-12T12:10:11;3.42;;;2.67;;
13419;SDS011;6781;58.440;15.470;2023-08-12T12:12:41;3.35;;;2.85;;
13419;SDS011;6781;58.440;15.470;2023-08-12T12:15:08;3.58;;;2.63;;
13419;SDS011;6781;58.440;15.470;2023-08-12T12:17:38;3.08;;;2.85;;
13419;SDS011;6781;58.440;15.470;2023-08-12T12:20:06;4.82;;;2.97;;
13419;SDS011;6781;58.440;15.470;2023-08-12T12:22:35;3.28;;;2.88;;
13419;SDS011;6781;58.440;15.470;2023-08-12T12:25:06;2.85;;;2.65;;
13419;SDS011;6781;58.440;15.470;2023-08-12T12:27:34;2.95;;;2.60;;
13419;SDS011;6781;58.440;15.470;2023-08-12T12:30:05;2.78;;;2.58;;
13419;SDS011;6781;58.440;15.470;2023-08-12T12:32:37;2.90;;;2.65;;
13419;SDS011;6781;58.440;15.470;2023-08-12T12:35:05;5.13;;;2.97;;
13419;SDS011;6781;58.440;15.470;2023-08-12T12:37:33;3.20;;;3.00;;
13419;SDS011;6781;58.440;15.470;2023-08-12T12:40:00;2.90;;;2.67;;
13419;SDS011;6781;58.440;15.470;2023-08-12T12:42:28;4.30;;;2.90;;
13419;SDS011;6781;58.440;15.470;2023-08-12T12:44:55;3.13;;;2.90;;
13419;SDS011;6781;58.440;15.470;2023-08-12T12:47:23;4.43;;;3.00;;
13419;SDS011;6781;58.440;15.470;2023-08-12T12:49:50;3.08;;;2.83;;
13419;SDS011;6781;58.440;15.470;2023-08-12T12:52:17;4.18;;;3.22;;
13419;SDS011;6781;58.440;15.470;2023-08-12T12:54:44;4.68;;;2.65;;
13419;SDS011;6781;58.440;15.470;2023-08-12T12:57:12;5.03;;;2.80;;
13419;SDS011;6781;58.440;15.470;2023-08-12T12:59:40;2.92;;;2.72;;
13419;SDS011;6781;58.440;15.470;2023-08-12T13:02:09;3.40;;;3.10;;
13419;SDS011;6781;58.440;15.470;2023-08-12T13:04:37;4.35;;;3.03;;
13419;SDS011;6781;58.440;15.470;2023-08-12T13:07:05;3.42;;;2.92;;
13419;SDS011;6781;58.440;15.470;2023-08-12T13:09:32;3.67;;;3.40;;
13419;SDS011;6781;58.440;15.470;2023-08-12T13:11:59;3.90;;;2.90;;
13419;SDS011;6781;58.440;15.470;2023-08-12T13:14:26;3.60;;;3.30;;
13419;SDS011;6781;58.440;15.470;2023-08-12T13:16:55;3.38;;;3.08;;
13419;SDS011;6781;58.440;15.470;2023-08-12T13:19:22;5.43;;;2.80;;
13419;SDS011;6781;58.440;15.470;2023-08-12T13:21:51;4.22;;;3.03;;
13419;SDS011;6781;58.440;15.470;2023-08-12T13:24:19;4.43;;;3.40;;
13419;SDS011;6781;58.440;15.470;2023-08-12T13:26:46;3.97;;;3.55;;
13419;SDS011;6781;58.440;15.470;2023-08-12T13:29:13;4.70;;;3.13;;
13419;SDS011;6781;58.440;15.470;2023-08-12T13:31:41;3.63;;;3.22;;
13419;SDS011;6781;58.440;15.470;2023-08-12T13:34:09;3.75;;;3.35;;
13419;SDS011;6781;58.440;15.470;2023-08-12T13:36:36;4.20;;;3.42;;
13419;SDS011;6781;58.440;15.470;2023-08-12T13:39:05;3.50;;;3.20;;
13419;SDS011;6781;58.440;15.470;2023-08-12T13:41:32;3.70;;;3.00;;
13419;SDS011;6781;58.440;15.470;2023-08-12T13:43:59;3.65;;;3.05;;
13419;SDS011;6781;58.440;15.470;2023-08-12T13:46:26;4.82;;;3.00;;
13419;SDS011;6781;58.440;15.470;2023-08-12T13:48:53;3.25;;;2.75;;
13419;SDS011;6781;58.440;15.470;2023-08-12T13:51:20;3.17;;;2.88;;
13419;SDS011;6781;58.440;15.470;2023-08-12T13:53:47;3.03;;;2.75;;
13419;SDS011;6781;58.440;15.470;2023-08-12T13:56:17;3.40;;;3.10;;
13419;SDS011;6781;58.440;15.470;2023-08-12T13:58:45;3.33;;;3.03;;
13419;SDS011;6781;58.440;15.470;2023-08-12T14:01:12;5.15;;;3.20;;
13419;SDS011;6781;58.440;15.470;2023-08-12T14:03:39;4.03;;;3.05;;
13419;SDS011;6781;58.440;15.470;2023-08-12T14:06:06;3.40;;;3.10;;
13419;SDS011;6781;58.440;15.470;2023-08-12T14:08:33;3.35;;;3.05;;
13419;SDS011;6781;58.440;15.470;2023-08-12T14:11:00;3.90;;;3.60;;
13419;SDS011;6781;58.440;15.470;2023-08-12T14:13:29;5.85;;;3.28;;
13419;SDS011;6781;58.440;15.470;2023-08-12T14:15:56;3.80;;;3.50;;
13419;SDS011;6781;58.440;15.470;2023-08-12T14:18:23;4.10;;;3.22;;
13419;SDS011;6781;58.440;15.470;2023-08-12T14:20:52;3.47;;;3.17;;
13419;SDS011;6781;58.440;15.470;2023-08-12T14:23:19;3.05;;;2.80;;
13419;SDS011;6781;58.440;15.470;2023-08-12T14:25:46;3.88;;;3.55;;
13419;SDS011;6781;58.440;15.470;2023-08-12T14:28:13;3.38;;;3.17;;
13419;SDS011;6781;58.440;15.470;2023-08-12T14:30:43;3.13;;;2.80;;
13419;SDS011;6781;58.440;15.470;2023-08-12T14:33:10;3.67;;;3.38;;
13419;SDS011;6781;58.440;15.470;2023-08-12T14:35:38;3.38;;;3.08;;
13419;SDS011;6781;58.440;15.470;2023-08-12T14:38:07;4.38;;;2.90;;
13419;SDS011;6781;58.440;15.470;2023-08-12T14:40:34;3.20;;;2.90;;
13419;SDS011;6781;58.440;15.470;2023-08-12T14:43:02;5.20;;;3.30;;
13419;SDS011;6781;58.440;15.470;2023-08-12T14:45:29;3.83;;;3.42;;
13419;SDS011;6781;58.440;15.470;2023-08-12T14:47:58;3.85;;;3.10;;
13419;SDS011;6781;58.440;15.470;2023-08-12T14:50:26;3.60;;;3.33;;
13419;SDS011;6781;58.440;15.470;2023-08-12T14:52:54;4.57;;;3.58;;
13419;SDS011;6781;58.440;15.470;2023-08-12T14:55:22;4.03;;;2.97;;
13419;SDS011;6781;58.440;15.470;2023-08-12T14:57:50;3.50;;;3.20;;
13419;SDS011;6781;58.440;15.470;2023-08-12T15:00:18;3.95;;;3.33;;
13419;SDS011;6781;58.440;15.470;2023-08-12T15:02:46;3.28;;;2.90;;
13419;SDS011;6781;58.440;15.470;2023-08-12T15:05:16;3.78;;;3.42;;
13419;SDS011;6781;58.440;15.470;2023-08-12T15:07:44;3.80;;;3.40;;
13419;SDS011;6781;58.440;15.470;2023-08-12T15:10:11;3.47;;;3.20;;
13419;SDS011;6781;58.440;15.470;2023-08-12T15:12:38;3.63;;;3.33;;
13419;SDS011;6781;58.440;15.470;2023-08-12T15:15:06;4.50;;;3.92;;
13419;SDS011;6781;58.440;15.470;2023-08-12T15:17:47;4.85;;;3.80;;
13419;SDS011;6781;58.440;15.470;2023-08-12T15:20:20;5.47;;;3.47;;
13419;SDS011;6781;58.440;15.470;2023-08-12T15:22:48;4.65;;;4.35;;
13419;SDS011;6781;58.440;15.470;2023-08-12T15:25:25;7.00;;;5.07;;
13419;SDS011;6781;58.440;15.470;2023-08-12T15:27:53;4.45;;;4.15;;